Suakin — ZCIL — position and weather

sailwx.info

Track history (hours):
 
Tides and Currents Weather Stations Pressure Air Temp Water Temp Dewpoint Dewpoint Depression Visibility Wind Speed Wind Dir Waves Ship Positions

Suakin

Last reported at 2016-Jul-30 18:29 UTC. Time now 2016-Jul-31 07:23 UTC.
Position N 38°28' E 014°58'.

Length 37 m; draft 2.5 m.

Type: Pleasure craft. MMSI: 319897000.

Date/timePositionNaut miles runAvg speedWind from/ knotsBaromVisibWave heightAir tempDewpointWater temp
2016-Jul-30 18:29N 38°28' E 014°58'0 0.0
2016-Jul-30 17:23N 38°28' E 014°58'0 0.0
2016-Jul-30 16:17N 38°28' E 014°58'2 0.2
2016-Jul-30 07:33N 38°26' E 014°57'5 1.6
2016-Jul-30 04:31N 38°22' E 015°00'0 0.0
2016-Jul-30 03:10N 38°22' E 015°00'0 0.0
2016-Jul-30 02:28N 38°22' E 015°00'0 0.0
2016-Jul-30 01:22N 38°22' E 015°00'0 0.0
2016-Jul-29 23:25N 38°22' E 015°00'0 0.0
2016-Jul-29 22:31N 38°22' E 015°00'0 0.0
2016-Jul-29 21:16N 38°22' E 015°00'0 0.0
2016-Jul-29 20:04N 38°22' E 015°00'0 0.0
2016-Jul-29 19:28N 38°22' E 015°00'0 0.0
2016-Jul-29 18:22N 38°22' E 015°00'0 0.0
2016-Jul-29 16:28N 38°22' E 015°00'0 0.0
2016-Jul-29 15:33N 38°22' E 015°00'8 8.3
2016-Jul-29 14:33N 38°18' E 015°10'6 5.7
2016-Jul-29 13:30N 38°14' E 015°15'0 0.0
2016-Jul-29 12:30N 38°14' E 015°15'0 0.0
2016-Jul-29 11:30N 38°14' E 015°15'0 0.0
2016-Jul-29 10:33N 38°14' E 015°15'0 0.0
2016-Jul-29 09:30N 38°14' E 015°15'0 0.0
2016-Jul-29 08:30N 38°14' E 015°15'0 0.0
2016-Jul-29 07:30N 38°14' E 015°15'0 0.0
2016-Jul-29 06:30N 38°14' E 015°15'0 0.0
2016-Jul-29 05:30N 38°14' E 015°15'0 0.0
2016-Jul-29 04:30N 38°14' E 015°15'0 0.0
2016-Jul-29 03:30N 38°14' E 015°15'0 0.0
2016-Jul-29 02:30N 38°14' E 015°15'0 0.0
2016-Jul-29 01:30N 38°14' E 015°15'0 0.0
2016-Jul-29 00:30N 38°14' E 015°15'0 0.0
2016-Jul-28 23:30N 38°14' E 015°15'0 0.0
2016-Jul-28 22:30N 38°14' E 015°15'0 0.0
2016-Jul-28 21:30N 38°14' E 015°15'0 0.0
2016-Jul-28 20:30N 38°14' E 015°15'0 0.0
2016-Jul-27 23:18N 38°14' E 015°15'0 0.0
2016-Jul-27 16:04N 38°14' E 015°15'0 0.0
2016-Jul-27 15:32N 38°14' E 015°15'21 0.8
2016-Jul-26 12:32N 38°30' E 014°58'0 0.0
2016-Jul-26 11:33N 38°30' E 014°58'0 0.0
2016-Jul-26 10:33N 38°30' E 014°58'2 0.5
2016-Jul-26 05:29N 38°28' E 014°58'0 0.0
2016-Jul-26 04:08N 38°28' E 014°58'0 0.0
2016-Jul-26 03:20N 38°28' E 014°58'0 0.0
2016-Jul-26 02:14N 38°28' E 014°58'0 0.0
2016-Jul-26 01:26N 38°28' E 014°58'0 0.0
2016-Jul-26 00:20N 38°28' E 014°58'0 0.0
2016-Jul-25 21:20N 38°28' E 014°58'0 0.0
2016-Jul-25 15:32N 38°28' E 014°58'0 0.0
2016-Jul-25 14:30N 38°28' E 014°58'12 1.1
2016-Jul-25 03:26N 38°38' E 015°05'0 0.0
2016-Jul-25 00:26N 38°38' E 015°05'0 0.0
2016-Jul-24 23:29N 38°38' E 015°05'0 0.0
2016-Jul-24 22:32N 38°38' E 015°05'0 0.0
2016-Jul-24 16:31N 38°38' E 015°05'0 0.0
2016-Jul-24 14:33N 38°38' E 015°05'5 5.0
2016-Jul-24 13:33N 38°43' E 015°07'8 0.3
2016-Jul-23 14:23N 38°49' E 015°15'10 3.6
2016-Jul-23 11:33N 38°58' E 015°10'3511.0
2016-Jul-23 08:23N 39°30' E 014°52'911.4
2016-Jul-23 07:33N 39°39' E 014°47'1211.3
2016-Jul-23 06:32N 39°50' E 014°42'2311.3
2016-Jul-23 04:29N 40°11' E 014°29'1511.1
2016-Jul-23 03:09N 40°24' E 014°22'610.9
2016-Jul-23 02:33N 40°30' E 014°18'5 4.5
2016-Jul-23 01:33N 40°34' E 014°14'0 0.0
2016-Jul-23 00:21N 40°34' E 014°14'0 0.0
2016-Jul-22 23:27N 40°34' E 014°14'0 0.0
2016-Jul-22 22:33N 40°34' E 014°14'0 0.0
2016-Jul-22 21:33N 40°34' E 014°14'0 0.0
2016-Jul-22 20:32N 40°34' E 014°14'0 0.0
2016-Jul-22 19:14N 40°34' E 014°14'0 0.0
2016-Jul-22 18:32N 40°34' E 014°14'0 0.0
2016-Jul-22 17:32N 40°34' E 014°14'0 0.0
2016-Jul-22 16:32N 40°34' E 014°14'0 0.0
2016-Jul-22 15:32N 40°34' E 014°14'0 0.0
2016-Jul-22 14:32N 40°34' E 014°14'0 0.0
2016-Jul-22 13:24N 40°34' E 014°14'6 7.0
2016-Jul-22 12:33N 40°38' E 014°20'3 2.9
2016-Jul-22 11:33N 40°38' E 014°23'0 0.0
2016-Jul-22 10:33N 40°38' E 014°23'0 0.0
2016-Jul-22 09:21N 40°38' E 014°23'0 0.0
2016-Jul-22 08:33N 40°38' E 014°23'0 0.0
2016-Jul-22 04:27N 40°38' E 014°23'0 0.0
2016-Jul-22 03:33N 40°38' E 014°23'0 0.0
2016-Jul-22 02:33N 40°38' E 014°23'0 0.0
2016-Jul-22 01:33N 40°38' E 014°23'0 0.0
2016-Jul-22 00:33N 40°38' E 014°23'0 0.0
2016-Jul-21 23:33N 40°38' E 014°23'0 0.0
2016-Jul-21 22:33N 40°38' E 014°23'0 0.0
2016-Jul-21 21:27N 40°38' E 014°23'0 0.0
2016-Jul-21 20:33N 40°38' E 014°23'0 0.0
2016-Jul-21 19:21N 40°38' E 014°23'0 0.0
2016-Jul-21 18:33N 40°38' E 014°23'0 0.0
2016-Jul-21 17:33N 40°38' E 014°23'0 0.0
2016-Jul-21 15:33N 40°38' E 014°23'0 0.0
2016-Jul-21 13:15N 40°38' E 014°23'0 0.0
2016-Jul-21 12:33N 40°38' E 014°23'0 0.0
2016-Jul-21 11:33N 40°38' E 014°23'0 0.0
2016-Jul-21 10:33N 40°38' E 014°23'  
Track history (hours):
 
Tides and Currents Weather Stations Pressure Air Temp Water Temp Dewpoint Dewpoint Depression Visibility Wind Speed Wind Dir Waves Ship Positions

Suakin

Last reported at 2016-Jul-30 18:29 UTC. Time now 2016-Jul-31 07:23 UTC.
Position N 38°28' E 014°58'.

Length 37 m; draft 2.5 m.

Type: Pleasure craft. MMSI: 319897000.

Date/timePositionNaut miles runAvg speedWind from/ knotsBaromVisibWave heightAir tempDewpointWater temp
2016-Jul-30 18:29N 38°28' E 014°58'0 0.0
2016-Jul-30 17:23N 38°28' E 014°58'0 0.0
2016-Jul-30 16:17N 38°28' E 014°58'2 0.2
2016-Jul-30 07:33N 38°26' E 014°57'5 1.6
2016-Jul-30 04:31N 38°22' E 015°00'0 0.0
2016-Jul-30 03:10N 38°22' E 015°00'0 0.0
2016-Jul-30 02:28N 38°22' E 015°00'0 0.0
2016-Jul-30 01:22N 38°22' E 015°00'0 0.0
2016-Jul-29 23:25N 38°22' E 015°00'0 0.0
2016-Jul-29 22:31N 38°22' E 015°00'0 0.0
2016-Jul-29 21:16N 38°22' E 015°00'0 0.0
2016-Jul-29 20:04N 38°22' E 015°00'0 0.0
2016-Jul-29 19:28N 38°22' E 015°00'0 0.0
2016-Jul-29 18:22N 38°22' E 015°00'0 0.0
2016-Jul-29 16:28N 38°22' E 015°00'0 0.0
2016-Jul-29 15:33N 38°22' E 015°00'8 8.3
2016-Jul-29 14:33N 38°18' E 015°10'6 5.7
2016-Jul-29 13:30N 38°14' E 015°15'0 0.0
2016-Jul-29 12:30N 38°14' E 015°15'0 0.0
2016-Jul-29 11:30N 38°14' E 015°15'0 0.0
2016-Jul-29 10:33N 38°14' E 015°15'0 0.0
2016-Jul-29 09:30N 38°14' E 015°15'0 0.0
2016-Jul-29 08:30N 38°14' E 015°15'0 0.0
2016-Jul-29 07:30N 38°14' E 015°15'0 0.0
2016-Jul-29 06:30N 38°14' E 015°15'0 0.0
2016-Jul-29 05:30N 38°14' E 015°15'0 0.0
2016-Jul-29 04:30N 38°14' E 015°15'0 0.0
2016-Jul-29 03:30N 38°14' E 015°15'0 0.0
2016-Jul-29 02:30N 38°14' E 015°15'0 0.0
2016-Jul-29 01:30N 38°14' E 015°15'0 0.0
2016-Jul-29 00:30N 38°14' E 015°15'0 0.0
2016-Jul-28 23:30N 38°14' E 015°15'0 0.0
2016-Jul-28 22:30N 38°14' E 015°15'0 0.0
2016-Jul-28 21:30N 38°14' E 015°15'0 0.0
2016-Jul-28 20:30N 38°14' E 015°15'0 0.0
2016-Jul-27 23:18N 38°14' E 015°15'0 0.0
2016-Jul-27 16:04N 38°14' E 015°15'0 0.0
2016-Jul-27 15:32N 38°14' E 015°15'21 0.8
2016-Jul-26 12:32N 38°30' E 014°58'0 0.0
2016-Jul-26 11:33N 38°30' E 014°58'0 0.0
2016-Jul-26 10:33N 38°30' E 014°58'2 0.5
2016-Jul-26 05:29N 38°28' E 014°58'0 0.0
2016-Jul-26 04:08N 38°28' E 014°58'0 0.0
2016-Jul-26 03:20N 38°28' E 014°58'0 0.0
2016-Jul-26 02:14N 38°28' E 014°58'0 0.0
2016-Jul-26 01:26N 38°28' E 014°58'0 0.0
2016-Jul-26 00:20N 38°28' E 014°58'0 0.0
2016-Jul-25 21:20N 38°28' E 014°58'0 0.0
2016-Jul-25 15:32N 38°28' E 014°58'0 0.0
2016-Jul-25 14:30N 38°28' E 014°58'12 1.1
2016-Jul-25 03:26N 38°38' E 015°05'0 0.0
2016-Jul-25 00:26N 38°38' E 015°05'0 0.0
2016-Jul-24 23:29N 38°38' E 015°05'0 0.0
2016-Jul-24 22:32N 38°38' E 015°05'0 0.0
2016-Jul-24 16:31N 38°38' E 015°05'0 0.0
2016-Jul-24 14:33N 38°38' E 015°05'5 5.0
2016-Jul-24 13:33N 38°43' E 015°07'8 0.3
2016-Jul-23 14:23N 38°49' E 015°15'10 3.6
2016-Jul-23 11:33N 38°58' E 015°10'3511.0
2016-Jul-23 08:23N 39°30' E 014°52'911.4
2016-Jul-23 07:33N 39°39' E 014°47'1211.3
2016-Jul-23 06:32N 39°50' E 014°42'2311.3
2016-Jul-23 04:29N 40°11' E 014°29'1511.1
2016-Jul-23 03:09N 40°24' E 014°22'610.9
2016-Jul-23 02:33N 40°30' E 014°18'5 4.5
2016-Jul-23 01:33N 40°34' E 014°14'0 0.0
2016-Jul-23 00:21N 40°34' E 014°14'0 0.0
2016-Jul-22 23:27N 40°34' E 014°14'0 0.0
2016-Jul-22 22:33N 40°34' E 014°14'0 0.0
2016-Jul-22 21:33N 40°34' E 014°14'0 0.0
2016-Jul-22 20:32N 40°34' E 014°14'0 0.0
2016-Jul-22 19:14N 40°34' E 014°14'0 0.0
2016-Jul-22 18:32N 40°34' E 014°14'0 0.0
2016-Jul-22 17:32N 40°34' E 014°14'0 0.0
2016-Jul-22 16:32N 40°34' E 014°14'0 0.0
2016-Jul-22 15:32N 40°34' E 014°14'0 0.0
2016-Jul-22 14:32N 40°34' E 014°14'0 0.0
2016-Jul-22 13:24N 40°34' E 014°14'6 7.0
2016-Jul-22 12:33N 40°38' E 014°20'3 2.9
2016-Jul-22 11:33N 40°38' E 014°23'0 0.0
2016-Jul-22 10:33N 40°38' E 014°23'0 0.0
2016-Jul-22 09:21N 40°38' E 014°23'0 0.0
2016-Jul-22 08:33N 40°38' E 014°23'0 0.0
2016-Jul-22 04:27N 40°38' E 014°23'0 0.0
2016-Jul-22 03:33N 40°38' E 014°23'0 0.0
2016-Jul-22 02:33N 40°38' E 014°23'0 0.0
2016-Jul-22 01:33N 40°38' E 014°23'0 0.0
2016-Jul-22 00:33N 40°38' E 014°23'0 0.0
2016-Jul-21 23:33N 40°38' E 014°23'0 0.0
2016-Jul-21 22:33N 40°38' E 014°23'0 0.0
2016-Jul-21 21:27N 40°38' E 014°23'0 0.0
2016-Jul-21 20:33N 40°38' E 014°23'0 0.0
2016-Jul-21 19:21N 40°38' E 014°23'0 0.0
2016-Jul-21 18:33N 40°38' E 014°23'0 0.0
2016-Jul-21 17:33N 40°38' E 014°23'0 0.0
2016-Jul-21 15:33N 40°38' E 014°23'0 0.0
2016-Jul-21 13:15N 40°38' E 014°23'0 0.0
2016-Jul-21 12:33N 40°38' E 014°23'0 0.0
2016-Jul-21 11:33N 40°38' E 014°23'0 0.0
2016-Jul-21 10:33N 40°38' E 014°23'  

Dump ship's entire track history